Time;durP1;ratioP1;P1;durP2;ratioP2;P2;SDS_P1;SDS_P2;PMS_P1;PMS_P2;Temp;Humidity;BMP_temperature;BMP_pressure;BME280_temperature;BME280_humidity;BME280_pressure;Samples;Min_cycle;Max_cycle;Signal;HPM_P1;HPM_P2
2023/04/29 00:01:13;;;;;;;8.33;4.77;;;13.50;83.40;;;;;;5064486;28;20477;-66
2023/04/29 00:03:57;;;;;;;8.00;4.80;;;13.50;83.40;;;;;;5068145;28;20449;-67
2023/04/29 00:06:28;;;;;;;6.33;4.20;;;13.40;83.30;;;;;;5066152;28;20824;-66
2023/04/29 00:09:00;;;;;;;6.20;4.27;;;13.40;83.30;;;;;;5065252;28;20526;-66
2023/04/29 00:11:43;;;;;;;9.23;6.20;;;13.40;83.30;;;;;;5068238;28;20460;-66
2023/04/29 00:14:20;;;;;;;15.37;8.40;;;13.40;83.20;;;;;;5069274;28;20966;-66
2023/04/29 00:19:42;;;;;;;12.40;7.27;;;13.20;82.90;;;;;;5064314;28;20476;-66
2023/04/29 00:22:21;;;;;;;14.67;6.43;;;13.20;83.00;;;;;;5064296;28;20492;-66
2023/04/29 00:24:56;;;;;;;13.00;7.80;;;13.20;83.00;;;;;;5070321;28;20447;-66
2023/04/29 00:27:29;;;;;;;11.83;7.33;;;13.20;83.10;;;;;;5068667;28;20441;-66
2023/04/29 00:30:00;;;;;;;17.60;7.83;;;13.20;83.00;;;;;;5065176;28;20929;-66
2023/04/29 00:32:58;;;;;;;13.13;8.17;;;13.20;83.10;;;;;;5065176;28;20481;-66
2023/04/29 00:35:35;;;;;;;10.20;7.33;;;13.20;82.90;;;;;;5066547;28;21523;-67
2023/04/29 00:38:15;;;;;;;10.07;6.13;;;13.10;82.90;;;;;;5067650;28;20444;-67
2023/04/29 00:40:48;;;;;;;13.77;8.00;;;13.10;82.80;;;;;;5067945;28;20539;-66
2023/04/29 00:43:20;;;;;;;21.23;11.77;;;13.10;82.80;;;;;;5067923;28;20964;-66
2023/04/29 00:45:53;;;;;;;21.40;11.60;;;13.10;82.70;;;;;;5068670;28;20449;-66
2023/04/29 00:48:27;;;;;;;17.37;10.03;;;13.10;82.60;;;;;;5063135;28;20506;-66
2023/04/29 00:50:59;;;;;;;17.43;9.20;;;13.00;82.50;;;;;;5069625;28;20522;-66
2023/04/29 00:53:30;;;;;;;9.90;5.70;;;13.00;82.50;;;;;;5065723;28;20475;-66
2023/04/29 00:56:06;;;;;;;7.50;4.30;;;13.00;82.50;;;;;;5066555;28;20986;-66
2023/04/29 00:58:49;;;;;;;8.60;4.17;;;13.00;82.50;;;;;;5069126;28;20871;-66
2023/04/29 01:01:23;;;;;;;7.70;4.20;;;12.90;82.50;;;;;;5065189;28;20476;-66
2023/04/29 01:03:57;;;;;;;7.13;3.70;;;12.90;82.60;;;;;;5068971;28;20506;-66
2023/04/29 01:07:00;;;;;;;14.57;9.23;;;12.90;82.60;;;;;;5063322;28;20467;-65
2023/04/29 01:09:52;;;;;;;18.33;12.30;;;12.90;82.50;;;;;;5065681;28;20552;-68
2023/04/29 01:12:43;;;;;;;20.53;9.97;;;12.80;82.40;;;;;;5065496;28;20507;-66
2023/04/29 01:15:25;;;;;;;23.60;6.10;;;12.80;82.30;;;;;;5065082;28;20487;-66
2023/04/29 01:18:08;;;;;;;16.67;5.93;;;12.80;82.30;;;;;;5067895;28;20536;-66
2023/04/29 01:20:48;;;;;;;7.67;4.83;;;12.70;82.30;;;;;;5065454;28;20606;-67
2023/04/29 01:23:31;;;;;;;6.90;4.80;;;12.70;82.40;;;;;;5066575;28;20487;-66
2023/04/29 01:26:04;;;;;;;13.33;7.00;;;12.70;82.40;;;;;;5067086;28;20449;-66
2023/04/29 01:29:10;;;;;;;7.53;4.77;;;12.70;82.50;;;;;;5064762;28;20453;-66
2023/04/29 01:31:50;;;;;;;7.67;5.10;;;12.60;82.40;;;;;;5081208;28;20518;-66
2023/04/29 01:34:30;;;;;;;8.97;5.50;;;12.60;82.50;;;;;;5060301;28;20456;-66
2023/04/29 01:37:20;;;;;;;8.03;5.57;;;12.70;82.50;;;;;;5069149;28;20483;-67
2023/04/29 01:40:19;;;;;;;9.00;6.07;;;12.70;82.60;;;;;;5068327;28;20480;-66
2023/04/29 01:43:11;;;;;;;25.67;16.37;;;12.70;82.50;;;;;;5067203;28;20462;-66
2023/04/29 01:46:05;;;;;;;18.33;12.73;;;12.70;82.50;;;;;;5068281;28;20455;-67
2023/04/29 01:48:35;;;;;;;42.40;27.80;;;12.70;82.30;;;;;;5066871;28;20492;-66
2023/04/29 01:51:20;;;;;;;23.70;15.80;;;12.60;82.30;;;;;;5066845;28;20461;-66
2023/04/29 01:54:01;;;;;;;10.03;6.57;;;12.60;82.20;;;;;;5066655;28;21015;-68
2023/04/29 01:56:51;;;;;;;10.00;6.13;;;12.60;82.10;;;;;;5069233;28;20473;-65
2023/04/29 01:59:29;;;;;;;7.70;5.67;;;12.50;82.10;;;;;;5068983;28;20471;-65
2023/04/29 02:02:20;;;;;;;8.60;6.20;;;12.50;82.20;;;;;;5034358;28;20484;-66
2023/04/29 02:05:04;;;;;;;8.20;5.37;;;12.50;82.20;;;;;;5068899;28;20530;-66
2023/04/29 02:07:49;;;;;;;9.17;5.53;;;12.40;82.10;;;;;;5069503;28;20564;-66
2023/04/29 02:10:19;;;;;;;8.17;5.40;;;12.40;81.90;;;;;;5068634;28;21312;-66
2023/04/29 02:13:12;;;;;;;7.40;5.00;;;12.40;81.80;;;;;;5065777;28;20462;-65
2023/04/29 02:15:48;;;;;;;7.50;5.00;;;12.30;81.70;;;;;;5065605;28;20459;-65
2023/04/29 02:18:22;;;;;;;38.70;25.50;;;12.30;81.70;;;;;;5066407;28;20487;-66
2023/04/29 02:21:08;;;;;;;15.27;10.50;;;12.30;81.60;;;;;;5083375;28;20486;-66
2023/04/29 02:23:48;;;;;;;20.43;14.73;;;12.20;81.60;;;;;;5064565;28;20479;-67
2023/04/29 02:26:19;;;;;;;16.23;10.63;;;12.20;81.60;;;;;;5060873;28;20464;-65
2023/04/29 02:28:56;;;;;;;13.40;9.13;;;12.20;81.60;;;;;;5067830;28;20458;-66
2023/04/29 02:31:36;;;;;;;11.83;7.93;;;12.20;81.60;;;;;;5063981;28;20476;-65
2023/04/29 02:34:16;;;;;;;23.43;14.20;;;12.20;81.60;;;;;;5067188;28;20495;-66
2023/04/29 02:36:48;;;;;;;27.13;16.30;;;12.20;81.50;;;;;;5066035;28;20451;-65
2023/04/29 02:39:22;;;;;;;19.43;11.63;;;12.20;81.50;;;;;;5068461;28;20819;-66
2023/04/29 02:41:59;;;;;;;16.07;9.80;;;12.10;81.50;;;;;;5067347;28;20450;-66
2023/04/29 02:44:40;;;;;;;12.90;8.13;;;12.10;81.50;;;;;;5068996;28;20480;-66
2023/04/29 02:47:12;;;;;;;13.90;8.03;;;12.10;81.40;;;;;;5067977;28;20461;-66
2023/04/29 02:49:46;;;;;;;11.40;7.17;;;12.10;81.40;;;;;;5070332;28;20456;-66
2023/04/29 02:52:15;;;;;;;7.30;5.13;;;12.10;81.40;;;;;;5070861;28;20459;-66
2023/04/29 02:54:52;;;;;;;7.50;5.10;;;12.10;81.50;;;;;;5071022;28;20599;-66
2023/04/29 02:57:24;;;;;;;7.50;4.53;;;12.10;81.50;;;;;;5066769;28;20453;-66
2023/04/29 03:00:20;;;;;;;7.77;5.27;;;12.10;81.50;;;;;;5072743;28;20987;-66
2023/04/29 03:02:54;;;;;;;7.77;4.80;;;12.10;81.60;;;;;;5072855;28;20474;-66
2023/04/29 03:05:34;;;;;;;6.90;4.60;;;12.10;81.60;;;;;;5071721;28;20562;-66
2023/04/29 03:08:13;;;;;;;13.03;4.93;;;12.10;81.40;;;;;;5070526;28;20570;-66
2023/04/29 03:10:52;;;;;;;8.57;5.23;;;12.10;81.30;;;;;;5074378;28;20461;-66
2023/04/29 03:13:33;;;;;;;9.40;5.67;;;12.10;81.20;;;;;;5071614;28;20465;-66
2023/04/29 03:16:16;;;;;;;8.10;5.53;;;12.00;81.20;;;;;;5071507;28;20472;-66
2023/04/29 03:18:48;;;;;;;11.93;6.10;;;12.00;81.10;;;;;;5063755;28;20469;-66
2023/04/29 03:21:26;;;;;;;10.67;7.27;;;12.00;81.10;;;;;;5068083;28;20977;-66
2023/04/29 03:23:58;;;;;;;12.80;7.93;;;12.00;81.10;;;;;;5066879;28;20455;-66
2023/04/29 03:26:36;;;;;;;16.27;9.03;;;12.00;81.10;;;;;;5071048;28;20458;-66
2023/04/29 03:29:06;;;;;;;10.10;6.33;;;12.00;81.20;;;;;;5073085;28;20491;-66
2023/04/29 03:31:48;;;;;;;8.93;5.67;;;12.00;81.30;;;;;;5060963;28;21064;-66
2023/04/29 03:34:28;;;;;;;9.30;6.03;;;12.10;81.30;;;;;;5069234;28;20461;-66
2023/04/29 03:37:24;;;;;;;8.30;5.13;;;12.10;81.40;;;;;;5070187;28;20478;-66
2023/04/29 03:40:06;;;;;;;7.50;5.40;;;12.10;81.30;;;;;;5070720;28;20481;-66
2023/04/29 03:42:35;;;;;;;8.20;5.00;;;12.20;81.30;;;;;;5070541;28;20550;-66
2023/04/29 03:45:13;;;;;;;7.00;5.00;;;12.20;81.30;;;;;;5067933;28;20463;-66
2023/04/29 03:47:58;;;;;;;7.90;5.67;;;12.20;81.30;;;;;;5072816;28;20464;-66
2023/04/29 03:50:32;;;;;;;9.80;5.70;;;12.20;81.30;;;;;;5070961;28;20437;-66
2023/04/29 03:53:03;;;;;;;8.10;5.17;;;12.30;81.30;;;;;;5068969;28;20484;-66
2023/04/29 03:55:43;;;;;;;7.90;5.00;;;12.30;81.30;;;;;;5070113;28;20466;-67
2023/04/29 03:58:22;;;;;;;7.93;5.30;;;12.30;81.30;;;;;;5071357;28;21127;-66
2023/04/29 04:00:56;;;;;;;10.40;6.20;;;12.30;81.30;;;;;;5069560;28;20490;-66
2023/04/29 04:03:37;;;;;;;8.87;6.00;;;12.30;81.30;;;;;;5066653;28;20467;-66
2023/04/29 04:06:09;;;;;;;9.33;6.57;;;12.30;81.40;;;;;;5068528;28;20459;-66
2023/04/29 04:08:40;;;;;;;10.37;6.80;;;12.30;81.40;;;;;;5069535;28;20493;-66
2023/04/29 04:11:23;;;;;;;10.20;6.50;;;12.30;81.50;;;;;;5065176;28;20465;-66
2023/04/29 04:14:04;;;;;;;9.77;6.50;;;12.40;81.50;;;;;;5065714;28;20589;-66
2023/04/29 04:16:46;;;;;;;12.43;6.47;;;12.40;81.60;;;;;;5062921;28;20571;-66
2023/04/29 04:19:32;;;;;;;9.67;6.43;;;12.40;81.60;;;;;;5063059;28;20565;-66
2023/04/29 04:22:06;;;;;;;12.33;6.50;;;12.40;81.60;;;;;;5062763;28;20501;-66
2023/04/29 04:24:44;;;;;;;11.20;6.77;;;12.50;81.70;;;;;;5066761;28;20461;-66
2023/04/29 04:27:18;;;;;;;9.83;7.10;;;12.50;81.80;;;;;;5065058;28;20467;-66
2023/04/29 04:29:57;;;;;;;11.83;6.93;;;12.50;81.80;;;;;;5061971;28;20461;-66
2023/04/29 04:32:36;;;;;;;8.87;6.23;;;12.50;81.90;;;;;;5059579;28;20547;-66
2023/04/29 04:35:20;;;;;;;10.67;6.83;;;12.50;82.00;;;;;;5058752;28;20463;-66
2023/04/29 04:38:01;;;;;;;11.17;8.13;;;12.60;82.10;;;;;;5067281;28;20484;-66
2023/04/29 04:40:35;;;;;;;10.67;7.97;;;12.60;82.20;;;;;;5063044;28;20623;-66
2023/04/29 04:43:25;;;;;;;8.77;6.60;;;12.70;82.20;;;;;;5063755;28;20472;-66
2023/04/29 04:45:57;;;;;;;9.33;5.53;;;12.70;82.30;;;;;;5069439;28;20557;-66
2023/04/29 04:48:31;;;;;;;8.67;6.20;;;12.80;82.30;;;;;;5071453;28;20963;-66
2023/04/29 04:51:16;;;;;;;9.93;6.70;;;12.80;82.30;;;;;;5070267;28;20797;-67
2023/04/29 04:53:55;;;;;;;9.70;7.00;;;12.80;82.20;;;;;;5068397;28;20467;-66
2023/04/29 04:56:28;;;;;;;10.13;6.30;;;12.80;82.20;;;;;;5070358;28;20472;-66
2023/04/29 04:59:08;;;;;;;8.20;6.30;;;12.90;82.20;;;;;;5070819;28;21016;-66
2023/04/29 05:01:46;;;;;;;10.47;6.93;;;12.90;82.30;;;;;;5069222;28;20550;-66
2023/04/29 05:04:21;;;;;;;8.97;6.50;;;12.90;82.30;;;;;;5067607;28;20470;-67
2023/04/29 05:07:00;;;;;;;10.07;7.80;;;12.90;82.30;;;;;;5070300;28;20454;-66
2023/04/29 05:09:43;;;;;;;9.63;6.10;;;13.00;82.40;;;;;;5067359;28;20449;-67
2023/04/29 05:12:16;;;;;;;9.93;7.00;;;13.00;82.40;;;;;;5069192;28;20556;-66
2023/04/29 05:14:58;;;;;;;11.07;7.10;;;13.00;82.50;;;;;;5069367;28;20453;-66
2023/04/29 05:17:33;;;;;;;9.93;6.13;;;13.10;82.60;;;;;;5070945;28;20480;-66
2023/04/29 05:20:10;;;;;;;8.97;6.23;;;13.10;82.50;;;;;;5073008;28;20465;-66
2023/04/29 05:22:48;;;;;;;10.90;7.10;;;13.10;82.60;;;;;;5068636;28;20490;-66
2023/04/29 05:25:27;;;;;;;11.70;7.40;;;13.20;82.70;;;;;;5064817;28;20596;-67
2023/04/29 05:28:00;;;;;;;9.13;6.83;;;13.20;82.70;;;;;;5068064;28;20468;-67
2023/04/29 05:30:36;;;;;;;12.60;8.87;;;13.20;82.80;;;;;;5065016;28;20511;-66
2023/04/29 05:33:10;;;;;;;13.47;8.80;;;13.30;82.90;;;;;;5067845;28;20487;-66
2023/04/29 05:35:51;;;;;;;15.13;9.90;;;13.30;82.90;;;;;;5069290;28;20543;-66
2023/04/29 05:38:37;;;;;;;16.00;8.20;;;13.40;83.00;;;;;;5071883;28;20533;-66
2023/04/29 05:41:12;;;;;;;11.83;8.90;;;13.50;83.20;;;;;;5068353;28;20985;-66
2023/04/29 05:43:45;;;;;;;12.40;9.17;;;13.50;83.20;;;;;;5065306;28;20469;-66
2023/04/29 05:46:19;;;;;;;15.20;9.33;;;13.60;83.20;;;;;;5071421;28;20495;-66
2023/04/29 05:49:01;;;;;;;14.87;11.33;;;13.60;83.20;;;;;;5071247;28;20453;-65
2023/04/29 05:51:41;;;;;;;14.60;10.07;;;13.60;83.20;;;;;;5069773;28;20559;-66
2023/04/29 05:54:30;;;;;;;15.53;10.57;;;13.70;83.30;;;;;;5068920;28;20450;-66
2023/04/29 05:57:09;;;;;;;12.40;9.93;;;13.70;83.30;;;;;;5068911;28;20917;-65
2023/04/29 05:59:48;;;;;;;15.40;11.00;;;13.70;83.30;;;;;;5069684;28;20860;-66
2023/04/29 06:02:19;;;;;;;18.70;10.57;;;13.70;83.40;;;;;;5063607;28;20486;-66
2023/04/29 06:04:53;;;;;;;13.63;10.60;;;13.80;83.40;;;;;;5067907;28;20463;-66
2023/04/29 06:07:34;;;;;;;13.47;9.53;;;13.80;83.60;;;;;;5065850;28;20465;-66
2023/04/29 06:10:27;;;;;;;12.30;9.90;;;13.80;83.60;;;;;;5067608;28;20540;-66
2023/04/29 06:12:59;;;;;;;14.63;11.03;;;13.80;83.60;;;;;;5063846;28;20778;-66
2023/04/29 06:15:40;;;;;;;16.00;11.20;;;13.90;83.70;;;;;;5066793;28;20467;-66
2023/04/29 06:18:14;;;;;;;16.10;11.23;;;13.90;83.70;;;;;;5068330;28;20441;-66
2023/04/29 06:20:45;;;;;;;14.37;10.27;;;13.90;83.80;;;;;;5071870;28;20538;-66
2023/04/29 06:23:21;;;;;;;13.57;10.57;;;14.00;83.70;;;;;;5068982;28;20482;-66
2023/04/29 06:26:09;;;;;;;15.43;10.97;;;14.00;83.70;;;;;;5072098;28;20456;-66
2023/04/29 06:28:49;;;;;;;13.43;9.60;;;14.10;83.70;;;;;;5073536;28;20561;-66
2023/04/29 06:31:30;;;;;;;14.87;11.17;;;14.10;83.70;;;;;;5068914;28;20889;-66
2023/04/29 06:34:04;;;;;;;14.83;10.90;;;14.10;83.70;;;;;;5072378;28;20457;-66
2023/04/29 06:37:06;;;;;;;15.47;11.60;;;14.10;83.80;;;;;;5072749;28;20463;-66
2023/04/29 06:40:20;;;;;;;13.83;10.17;;;14.20;83.70;;;;;;5047920;28;20783;-66
2023/04/29 06:43:25;;;;;;;15.43;10.43;;;14.20;83.70;;;;;;5071451;28;20809;-66
2023/04/29 06:46:36;;;;;;;14.50;11.53;;;14.20;83.60;;;;;;5069309;28;20453;-66
2023/04/29 06:49:21;;;;;;;15.40;10.83;;;14.20;83.60;;;;;;5070524;28;20468;-66
2023/04/29 06:51:55;;;;;;;16.73;11.63;;;14.20;83.60;;;;;;5070597;28;20522;-66
2023/04/29 06:54:36;;;;;;;16.90;12.30;;;14.30;83.60;;;;;;5072237;28;20844;-66
2023/04/29 06:57:10;;;;;;;17.30;12.80;;;14.30;83.60;;;;;;5071249;28;20447;-65
2023/04/29 06:59:58;;;;;;;17.70;12.80;;;14.40;83.70;;;;;;5071370;28;20457;-66
2023/04/29 07:02:33;;;;;;;17.77;11.97;;;14.50;83.70;;;;;;5068045;28;20574;-66
2023/04/29 07:05:10;;;;;;;18.10;13.30;;;14.60;83.60;;;;;;5071101;28;20530;-66
2023/04/29 07:07:41;;;;;;;19.93;13.77;;;14.60;83.50;;;;;;5069914;28;20450;-66
2023/04/29 07:10:11;;;;;;;17.90;13.10;;;14.60;83.60;;;;;;5068977;28;21309;-66
2023/04/29 07:12:44;;;;;;;16.57;12.00;;;14.70;83.40;;;;;;5070124;28;20792;-66
2023/04/29 07:15:37;;;;;;;15.30;10.93;;;14.70;83.10;;;;;;5070479;28;20995;-66
2023/04/29 07:18:17;;;;;;;15.77;11.57;;;14.60;82.90;;;;;;5070705;28;20446;-66
2023/04/29 07:20:54;;;;;;;14.80;9.70;;;14.60;82.90;;;;;;5071012;28;20564;-66
2023/04/29 07:23:27;;;;;;;13.87;10.20;;;14.60;82.70;;;;;;5066253;28;20487;-67
2023/04/29 07:26:04;;;;;;;16.10;11.33;;;14.50;82.80;;;;;;5081248;28;20797;-66
2023/04/29 07:31:21;;;;;;;17.50;12.50;;;14.60;82.70;;;;;;5082689;28;20481;-66
2023/04/29 07:33:51;;;;;;;15.00;11.00;;;14.60;82.60;;;;;;5069994;28;20539;-66
2023/04/29 07:36:24;;;;;;;15.70;11.57;;;14.60;82.60;;;;;;5071331;28;20553;-66
2023/04/29 07:38:58;;;;;;;16.43;10.63;;;14.60;82.50;;;;;;5058981;28;20559;-66
2023/04/29 07:41:29;;;;;;;14.67;11.23;;;14.70;82.30;;;;;;5067402;28;20797;-66
2023/04/29 07:44:04;;;;;;;14.27;10.10;;;14.70;82.00;;;;;;5071178;28;20565;-66
2023/04/29 07:46:50;;;;;;;15.13;10.70;;;14.70;82.00;;;;;;5068366;28;20455;-66
2023/04/29 07:49:29;;;;;;;12.63;9.47;;;14.70;82.00;;;;;;5065597;28;20572;-66
2023/04/29 07:52:06;;;;;;;15.70;9.73;;;14.70;81.90;;;;;;5066688;28;20543;-66
2023/04/29 07:54:45;;;;;;;14.50;10.07;;;14.80;81.80;;;;;;5058485;28;20461;-66
2023/04/29 07:57:21;;;;;;;14.20;9.77;;;14.80;81.70;;;;;;5069528;28;20454;-66
2023/04/29 07:59:55;;;;;;;11.53;8.40;;;14.80;81.60;;;;;;5069866;28;20454;-66
2023/04/29 08:02:45;;;;;;;13.17;8.03;;;14.80;81.50;;;;;;5066220;28;20499;-66
2023/04/29 08:05:25;;;;;;;11.60;8.50;;;14.80;81.30;;;;;;5067902;28;20490;-66
2023/04/29 08:10:43;;;;;;;12.67;9.20;;;14.70;81.00;;;;;;5071109;28;20470;-66
2023/04/29 08:13:11;;;;;;;11.33;8.10;;;14.80;81.00;;;;;;5066779;28;20770;-67
2023/04/29 08:15:43;;;;;;;13.33;8.07;;;14.70;80.90;;;;;;5065236;28;20459;-66
2023/04/29 08:18:24;;;;;;;11.37;8.10;;;14.70;80.90;;;;;;5073701;28;20531;-66
2023/04/29 08:21:01;;;;;;;12.23;8.37;;;14.80;80.70;;;;;;5069218;28;20450;-66
2023/04/29 08:23:36;;;;;;;17.57;8.37;;;14.80;80.80;;;;;;5071261;28;20508;-66
2023/04/29 08:26:21;;;;;;;10.13;6.97;;;14.80;80.70;;;;;;5070962;28;20492;-66
2023/04/29 08:28:58;;;;;;;11.60;7.47;;;14.80;80.60;;;;;;5067308;28;20450;-66
2023/04/29 08:31:31;;;;;;;13.00;8.00;;;14.80;80.70;;;;;;5067298;28;20532;-66
2023/04/29 08:34:06;;;;;;;12.23;8.27;;;14.90;80.60;;;;;;5073338;28;20474;-66
2023/04/29 08:36:38;;;;;;;12.10;7.43;;;14.90;80.60;;;;;;5069115;28;20486;-66
2023/04/29 08:39:16;;;;;;;11.27;8.07;;;15.00;80.30;;;;;;5066377;28;20450;-66
2023/04/29 08:41:50;;;;;;;11.87;8.27;;;15.00;80.30;;;;;;5066125;28;20520;-66
2023/04/29 08:44:21;;;;;;;15.50;8.43;;;15.10;80.20;;;;;;5069089;28;20525;-66
2023/04/29 08:47:02;;;;;;;11.60;7.87;;;15.20;80.00;;;;;;5067563;28;20462;-66
2023/04/29 08:49:38;;;;;;;10.90;7.87;;;15.30;79.90;;;;;;5070976;28;20513;-66
2023/04/29 08:52:17;;;;;;;12.37;7.47;;;15.30;79.90;;;;;;5063770;28;20933;-66
2023/04/29 08:54:53;;;;;;;11.77;7.97;;;15.40;79.80;;;;;;5072067;28;20496;-66
2023/04/29 08:57:28;;;;;;;12.47;7.90;;;15.40;79.60;;;;;;5068233;28;20456;-66
2023/04/29 09:00:00;;;;;;;13.90;7.60;;;15.50;79.50;;;;;;5067862;28;20452;-66
2023/04/29 09:02:32;;;;;;;13.23;7.93;;;15.60;79.40;;;;;;5068867;28;20477;-66
2023/04/29 09:05:17;;;;;;;11.40;7.47;;;15.60;79.20;;;;;;5068020;28;20457;-66
2023/04/29 09:07:51;;;;;;;10.93;6.43;;;15.60;78.90;;;;;;5065139;28;20460;-66
2023/04/29 09:10:23;;;;;;;9.50;6.57;;;15.60;78.70;;;;;;5068342;28;20520;-66
2023/04/29 09:13:02;;;;;;;10.30;6.13;;;15.60;78.70;;;;;;5061644;28;21020;-66
2023/04/29 09:15:39;;;;;;;9.13;6.13;;;15.60;78.30;;;;;;5068911;28;20528;-66
2023/04/29 09:18:47;;;;;;;11.90;6.60;;;15.70;77.90;;;;;;5070185;28;20988;-66
2023/04/29 09:21:56;;;;;;;10.90;6.97;;;15.60;78.00;;;;;;5066486;28;20842;-66
2023/04/29 09:24:45;;;;;;;9.90;6.17;;;15.70;77.90;;;;;;5069843;28;20512;-66
2023/04/29 09:27:31;;;;;;;9.47;6.50;;;15.70;77.60;;;;;;5069480;28;20487;-66
2023/04/29 09:30:04;;;;;;;8.80;6.77;;;15.70;77.40;;;;;;5068314;28;20935;-66
2023/04/29 09:32:34;;;;;;;10.37;6.83;;;15.70;77.40;;;;;;5069121;28;20512;-66
2023/04/29 09:35:26;;;;;;;10.10;6.23;;;15.70;77.30;;;;;;5063029;28;20553;-66
2023/04/29 09:38:12;;;;;;;9.73;5.93;;;15.70;77.20;;;;;;5065503;28;20827;-66
2023/04/29 09:40:52;;;;;;;10.17;6.03;;;15.70;77.10;;;;;;5068538;28;20927;-66
2023/04/29 09:43:38;;;;;;;9.50;6.10;;;15.80;77.10;;;;;;5068515;28;20866;-66
2023/04/29 09:46:18;;;;;;;9.93;6.23;;;15.80;77.00;;;;;;5068721;28;20456;-66
2023/04/29 09:48:52;;;;;;;10.17;6.33;;;15.80;76.90;;;;;;5066513;28;20465;-66
2023/04/29 09:51:27;;;;;;;9.00;6.23;;;15.90;76.90;;;;;;5063850;28;20453;-66
2023/04/29 09:54:03;;;;;;;8.33;5.10;;;15.90;76.80;;;;;;5071924;28;20777;-66
2023/04/29 09:56:50;;;;;;;9.30;6.00;;;15.90;76.70;;;;;;5073610;28;20518;-66
2023/04/29 09:59:30;;;;;;;7.20;4.80;;;16.00;76.40;;;;;;5074490;28;20467;-66
2023/04/29 10:02:06;;;;;;;8.30;5.63;;;16.00;76.10;;;;;;5072560;28;20470;-66
2023/04/29 10:04:41;;;;;;;7.57;4.83;;;15.90;76.00;;;;;;5076179;28;20594;-66
2023/04/29 10:07:16;;;;;;;9.50;5.07;;;15.80;75.80;;;;;;5074228;28;20463;-66
2023/04/29 10:09:55;;;;;;;12.97;5.17;;;15.80;75.90;;;;;;5074272;28;20457;-66
2023/04/29 10:12:28;;;;;;;8.00;5.23;;;15.70;75.80;;;;;;5075255;28;20561;-66
2023/04/29 10:15:03;;;;;;;6.77;4.00;;;15.70;75.80;;;;;;5071775;28;20560;-66
2023/04/29 10:17:41;;;;;;;6.50;4.20;;;15.60;75.60;;;;;;5075187;28;20470;-66
2023/04/29 10:20:19;;;;;;;7.60;4.47;;;15.60;75.50;;;;;;5074413;28;20482;-66
2023/04/29 10:22:53;;;;;;;6.47;4.00;;;15.50;75.50;;;;;;5074458;28;20446;-66
2023/04/29 10:25:26;;;;;;;7.10;4.17;;;15.50;75.40;;;;;;5073559;28;21019;-66
2023/04/29 10:28:03;;;;;;;7.37;4.13;;;15.40;75.50;;;;;;5074982;28;20455;-66
2023/04/29 10:30:37;;;;;;;9.23;3.93;;;15.50;75.40;;;;;;5074082;28;20973;-66
2023/04/29 10:33:09;;;;;;;5.90;3.50;;;15.50;75.30;;;;;;5071149;28;20491;-66
2023/04/29 10:35:43;;;;;;;6.40;3.93;;;15.60;75.30;;;;;;5073601;28;20459;-66
2023/04/29 10:38:24;;;;;;;9.13;4.27;;;15.60;75.10;;;;;;5075265;28;20458;-66
2023/04/29 10:41:02;;;;;;;6.40;3.80;;;15.60;75.00;;;;;;5073867;28;20462;-66
2023/04/29 10:43:42;;;;;;;5.70;3.40;;;15.60;75.10;;;;;;5078720;28;20440;-66
2023/04/29 10:46:26;;;;;;;7.17;3.60;;;15.60;75.00;;;;;;5074606;28;20493;-66
2023/04/29 10:49:00;;;;;;;7.07;3.27;;;15.60;74.70;;;;;;5071834;28;20499;-66
2023/04/29 10:51:32;;;;;;;7.10;3.93;;;15.60;74.70;;;;;;5073734;28;20456;-65
2023/04/29 10:54:13;;;;;;;6.90;3.97;;;15.60;74.60;;;;;;5074554;28;20924;-66
2023/04/29 10:56:54;;;;;;;7.77;4.73;;;15.50;74.40;;;;;;5070929;28;20476;-66
2023/04/29 10:59:49;;;;;;;6.57;4.20;;;15.50;74.30;;;;;;5073231;28;20470;-66
2023/04/29 11:02:28;;;;;;;7.03;4.10;;;15.40;74.20;;;;;;5072142;28;20499;-66
2023/04/29 11:05:11;;;;;;;6.70;3.90;;;15.40;74.20;;;;;;5069436;28;21179;-66
2023/04/29 11:07:49;;;;;;;6.57;4.30;;;15.40;74.00;;;;;;5071206;28;21138;-66
2023/04/29 11:10:38;;;;;;;6.27;3.60;;;15.30;74.00;;;;;;5069951;28;20543;-66
2023/04/29 11:13:33;;;;;;;7.10;4.30;;;15.30;73.80;;;;;;5072114;28;20456;-66
2023/04/29 11:16:13;;;;;;;6.20;3.37;;;15.30;73.80;;;;;;5072384;28;20487;-66
2023/04/29 11:19:07;;;;;;;6.63;3.27;;;15.30;73.70;;;;;;5071651;28;20452;-66
2023/04/29 11:21:40;;;;;;;5.63;3.57;;;15.30;73.70;;;;;;5068448;28;20882;-66
2023/04/29 11:24:11;;;;;;;5.97;3.60;;;15.30;73.90;;;;;;5073153;28;20483;-66
2023/04/29 11:26:42;;;;;;;5.50;2.63;;;15.30;73.80;;;;;;5071643;28;20452;-66
2023/04/29 11:29:19;;;;;;;5.30;3.40;;;15.40;73.70;;;;;;5073272;28;20997;-66
2023/04/29 11:31:58;;;;;;;5.00;2.57;;;15.40;73.60;;;;;;5068223;28;20477;-66
2023/04/29 11:34:33;;;;;;;6.00;3.20;;;15.40;73.50;;;;;;5071372;28;20508;-66
2023/04/29 11:37:06;;;;;;;5.20;2.80;;;15.40;73.60;;;;;;5072313;28;20450;-65
2023/04/29 11:39:35;;;;;;;5.67;3.13;;;15.40;73.50;;;;;;5067615;28;20476;-66
2023/04/29 11:42:16;;;;;;;8.67;3.80;;;15.40;73.40;;;;;;5067395;28;20469;-66
2023/04/29 11:44:55;;;;;;;10.20;2.93;;;15.50;73.50;;;;;;5078704;28;21139;-66
2023/04/29 11:47:37;;;;;;;5.50;3.30;;;15.50;73.50;;;;;;5071160;28;20571;-66
2023/04/29 11:50:19;;;;;;;5.60;3.00;;;15.50;73.40;;;;;;5072783;28;20459;-66
2023/04/29 11:52:54;;;;;;;5.23;3.10;;;15.40;73.40;;;;;;5070873;28;20474;-66
2023/04/29 11:55:27;;;;;;;5.63;2.90;;;15.40;73.40;;;;;;5064454;28;20471;-66
2023/04/29 11:58:05;;;;;;;4.90;2.30;;;15.40;73.40;;;;;;5071275;28;20586;-66
2023/04/29 12:00:38;;;;;;;7.20;3.63;;;15.50;73.10;;;;;;5070526;28;20471;-66
2023/04/29 12:03:17;;;;;;;5.97;3.27;;;15.50;73.00;;;;;;5070166;28;20512;-66
2023/04/29 12:05:53;;;;;;;10.50;4.37;;;15.50;72.90;;;;;;5070207;28;20484;-66
2023/04/29 12:08:33;;;;;;;6.20;3.50;;;15.40;73.00;;;;;;5071906;28;20464;-66
2023/04/29 12:11:09;;;;;;;6.40;3.13;;;15.50;73.00;;;;;;5070389;28;20961;-66
2023/04/29 12:13:39;;;;;;;5.37;2.93;;;15.50;72.90;;;;;;5068868;28;20459;-66
2023/04/29 12:16:29;;;;;;;5.87;3.40;;;15.50;72.90;;;;;;5066499;28;20811;-66
2023/04/29 12:19:01;;;;;;;6.37;3.70;;;15.50;72.90;;;;;;5070010;28;21331;-66
2023/04/29 12:21:36;;;;;;;5.60;3.43;;;15.50;72.90;;;;;;5069339;28;20455;-66
2023/04/29 12:24:07;;;;;;;6.83;3.60;;;15.50;72.90;;;;;;5069715;28;20948;-66
2023/04/29 12:26:42;;;;;;;6.60;3.00;;;15.50;72.90;;;;;;5068899;28;20582;-66
2023/04/29 12:29:13;;;;;;;5.80;3.03;;;15.50;72.80;;;;;;5070509;28;20455;-66
2023/04/29 12:32:03;;;;;;;5.30;2.80;;;15.50;72.90;;;;;;5065941;28;20816;-66
2023/04/29 12:34:36;;;;;;;6.70;3.00;;;15.60;72.90;;;;;;5068661;28;20449;-67
2023/04/29 12:37:11;;;;;;;5.10;2.60;;;15.60;72.90;;;;;;5065310;28;21069;-66
2023/04/29 12:39:45;;;;;;;5.17;2.77;;;15.70;73.00;;;;;;5064690;28;20459;-66
2023/04/29 12:42:21;;;;;;;5.70;2.90;;;15.70;72.90;;;;;;5067283;28;20955;-66
2023/04/29 12:48:01;;;;;;;5.47;3.13;;;15.80;72.70;;;;;;5068542;28;20452;-66
2023/04/29 12:50:42;;;;;;;5.13;3.13;;;15.90;72.70;;;;;;5061167;28;20777;-66
2023/04/29 12:53:14;;;;;;;5.80;3.20;;;16.00;72.70;;;;;;5083461;28;21001;-66
2023/04/29 12:55:50;;;;;;;6.20;2.70;;;16.00;72.60;;;;;;5069380;28;20497;-68
2023/04/29 12:58:29;;;;;;;5.13;2.50;;;16.00;72.50;;;;;;5068800;28;20453;-64
2023/04/29 13:01:02;;;;;;;4.83;2.60;;;16.00;72.40;;;;;;5071053;28;20491;-64
2023/04/29 13:03:38;;;;;;;4.93;2.70;;;15.90;72.50;;;;;;5067562;28;20452;-64
2023/04/29 13:06:12;;;;;;;6.93;2.53;;;16.00;72.30;;;;;;5068877;28;20475;-64
2023/04/29 13:08:52;;;;;;;6.07;2.70;;;15.90;72.20;;;;;;5068362;28;20559;-64
2023/04/29 13:11:23;;;;;;;4.50;2.30;;;15.90;72.20;;;;;;5067030;28;20475;-65
2023/04/29 13:13:56;;;;;;;6.13;3.40;;;15.80;72.20;;;;;;5067462;28;20518;-64
2023/04/29 13:16:28;;;;;;;6.03;3.40;;;15.80;72.10;;;;;;5070649;28;20904;-64
2023/04/29 13:19:20;;;;;;;9.50;4.80;;;15.80;72.10;;;;;;5070861;28;20555;-64
2023/04/29 13:22:14;;;;;;;8.13;4.00;;;15.80;72.00;;;;;;5066660;28;20562;-65
2023/04/29 13:24:46;;;;;;;5.33;2.87;;;15.80;71.90;;;;;;5069022;28;20460;-67
2023/04/29 13:27:20;;;;;;;5.07;2.20;;;15.80;72.00;;;;;;5064860;28;20790;-64
2023/04/29 13:29:55;;;;;;;6.90;3.67;;;15.90;71.80;;;;;;5070010;28;20510;-66
2023/04/29 13:32:28;;;;;;;7.73;2.50;;;15.90;71.80;;;;;;5063231;28;20484;-64
2023/04/29 13:35:21;;;;;;;6.03;3.43;;;16.00;71.80;;;;;;5066842;28;20468;-64
2023/04/29 13:37:52;;;;;;;4.93;2.53;;;16.00;71.60;;;;;;5064878;28;20508;-65
2023/04/29 13:40:22;;;;;;;5.73;2.97;;;16.00;71.70;;;;;;5067271;28;21023;-64
2023/04/29 13:43:02;;;;;;;5.73;2.97;;;16.00;71.70;;;;;;5066430;28;20530;-65
2023/04/29 13:45:40;;;;;;;5.77;3.00;;;16.10;71.60;;;;;;5061643;28;20491;-65
2023/04/29 13:48:22;;;;;;;5.13;2.90;;;16.20;71.40;;;;;;5066146;28;20818;-64
2023/04/29 13:51:18;;;;;;;5.47;2.80;;;16.20;71.40;;;;;;5065850;28;20468;-65